createdAt,value
2023-04-11T00:00:50.853Z,0.60
2023-04-11T00:02:24.484Z,0.80
2023-04-11T00:03:57.933Z,0.60
2023-04-11T00:05:31.287Z,0.70
2023-04-11T00:07:04.428Z,0.80
2023-04-11T00:08:39.151Z,0.75
2023-04-11T00:10:11.440Z,0.75
2023-04-11T00:11:44.829Z,0.70
2023-04-11T00:13:20.230Z,0.65
2023-04-11T00:14:53.823Z,0.43
2023-04-11T00:16:27.338Z,0.50
2023-04-11T00:18:00.619Z,0.80
2023-04-11T00:19:33.307Z,0.98
2023-04-11T00:21:07.815Z,0.52
2023-04-11T00:22:40.558Z,0.90
2023-04-11T00:24:15.407Z,0.75
2023-04-11T00:25:47.719Z,0.50
2023-04-11T00:27:21.916Z,0.70
2023-04-11T00:28:55.742Z,0.60
2023-04-11T00:30:29.448Z,0.50
2023-04-11T00:32:02.685Z,0.70
2023-04-11T00:33:35.968Z,0.50
2023-04-11T00:35:09.306Z,0.57
2023-04-11T00:36:42.597Z,0.47
2023-04-11T00:38:16.594Z,0.50
2023-04-11T00:39:53.169Z,0.70
2023-04-11T00:41:26.383Z,0.60
2023-04-11T00:42:59.815Z,0.60
2023-04-11T00:44:32.198Z,0.30
2023-04-11T00:46:06.312Z,0.60
2023-04-11T00:47:39.810Z,0.60
2023-04-11T00:49:12.464Z,0.77
2023-04-11T00:50:46.240Z,0.68
2023-04-11T00:52:19.428Z,0.50
2023-04-11T00:53:52.710Z,0.43
2023-04-11T00:55:28.183Z,0.40
2023-04-11T00:57:02.833Z,0.50
2023-04-11T00:58:37.854Z,0.30
2023-04-11T01:00:17.951Z,0.50
2023-04-11T01:01:50.382Z,0.50
2023-04-11T01:03:23.819Z,0.45
2023-04-11T01:04:56.802Z,0.40
2023-04-11T01:06:32.581Z,0.40
2023-04-11T01:08:05.544Z,0.50
2023-04-11T01:09:39.951Z,0.43
2023-04-11T01:11:18.120Z,0.50
2023-04-11T01:12:52.148Z,0.47
2023-04-11T01:14:27.205Z,0.50
2023-04-11T01:16:00.952Z,0.70
2023-04-11T01:17:33.832Z,0.40
2023-04-11T01:19:08.804Z,0.47
2023-04-11T01:20:42.342Z,0.30
2023-04-11T01:22:18.578Z,0.43
2023-04-11T01:23:52.779Z,0.50
2023-04-11T01:25:26.690Z,0.35
2023-04-11T01:27:01.928Z,0.38
2023-04-11T01:28:34.080Z,0.55
2023-04-11T01:30:12.343Z,0.28
2023-04-11T01:31:45.723Z,0.40
2023-04-11T01:33:19.035Z,0.60
2023-04-11T01:34:54.081Z,0.40
2023-04-11T01:36:28.859Z,0.40
2023-04-11T01:38:03.561Z,0.50
2023-04-11T01:39:38.147Z,0.88
2023-04-11T01:41:12.195Z,0.65
2023-04-11T01:42:47.720Z,0.70
2023-04-11T01:44:21.634Z,0.70
2023-04-11T01:45:55.161Z,0.70
2023-04-11T01:47:28.389Z,0.70
2023-04-11T01:49:01.286Z,0.60
2023-04-11T01:50:35.157Z,0.50
2023-04-11T01:52:08.502Z,0.45
2023-04-11T01:53:41.598Z,0.70
2023-04-11T01:55:15.610Z,0.90
2023-04-11T01:56:49.076Z,0.52
2023-04-11T01:58:21.399Z,1.02
2023-04-11T01:59:54.976Z,0.98
2023-04-11T02:01:28.619Z,0.85
2023-04-11T02:03:05.099Z,0.77
2023-04-11T02:04:38.536Z,1.05
2023-04-11T02:06:12.910Z,1.00
2023-04-11T02:07:45.249Z,1.55
2023-04-11T02:09:23.821Z,1.05
2023-04-11T02:12:32.271Z,0.93
2023-04-11T02:14:06.333Z,0.88
2023-04-11T02:15:39.611Z,0.70
2023-04-11T02:17:13.951Z,0.73
2023-04-11T02:18:47.337Z,0.75
2023-04-11T02:20:23.090Z,0.88
2023-04-11T02:21:56.167Z,0.95
2023-04-11T02:23:28.342Z,1.20
2023-04-11T02:25:01.691Z,0.85
2023-04-11T02:26:38.697Z,1.30
2023-04-11T02:28:11.791Z,0.90
2023-04-11T02:29:45.071Z,0.80
2023-04-11T02:31:18.327Z,1.10
2023-04-11T02:32:50.600Z,0.90
2023-04-11T02:34:23.876Z,1.05
2023-04-11T02:35:57.042Z,1.10
2023-04-11T02:37:29.240Z,1.00
2023-04-11T02:39:03.526Z,1.25
2023-04-11T02:40:36.668Z,0.90
2023-04-11T02:42:12.100Z,1.30
2023-04-11T02:43:45.482Z,1.00
2023-04-11T02:45:18.645Z,1.23
2023-04-11T02:46:50.835Z,1.30
2023-04-11T02:48:24.226Z,0.95
2023-04-11T02:49:57.570Z,1.52
2023-04-11T02:51:36.199Z,0.93
2023-04-11T02:53:08.481Z,0.90
2023-04-11T02:54:45.056Z,1.25
2023-04-11T02:56:20.090Z,1.77
2023-04-11T02:57:59.175Z,0.98
2023-04-11T02:59:32.354Z,1.45
2023-04-11T03:01:08.170Z,1.75
2023-04-11T03:02:41.555Z,2.15
2023-04-11T03:04:15.327Z,1.50
2023-04-11T03:06:01.806Z,1.23
2023-04-11T03:07:34.693Z,1.30
2023-04-11T03:09:07.966Z,2.03
2023-04-11T03:10:41.195Z,1.55
2023-04-11T03:12:19.932Z,1.48
2023-04-11T03:14:01.205Z,1.58
2023-04-11T03:15:34.399Z,1.35
2023-04-11T03:17:11.722Z,1.80
2023-04-11T03:18:45.187Z,1.40
2023-04-11T03:20:20.457Z,1.88
2023-04-11T03:21:57.965Z,1.60
2023-04-11T03:23:31.925Z,1.67
2023-04-11T03:25:06.310Z,2.10
2023-04-11T03:26:39.666Z,1.88
2023-04-11T03:28:17.261Z,1.55
2023-04-11T03:29:51.735Z,1.80
2023-04-11T03:31:33.098Z,1.67
2023-04-11T03:33:06.386Z,1.27
2023-04-11T03:34:39.787Z,1.33
2023-04-11T03:36:16.599Z,1.55
2023-04-11T03:37:50.063Z,1.45
2023-04-11T03:39:24.027Z,1.85
2023-04-11T03:40:58.085Z,1.60
2023-04-11T03:42:32.630Z,1.90
2023-04-11T03:44:07.946Z,2.03
2023-04-11T03:45:42.719Z,1.75
2023-04-11T03:47:24.022Z,1.65
2023-04-11T03:48:58.006Z,1.80
2023-04-11T03:50:30.756Z,2.00
2023-04-11T03:52:09.581Z,1.73
2023-04-11T03:53:43.467Z,1.50
2023-04-11T03:55:36.322Z,1.77
2023-04-11T03:57:12.263Z,1.40
2023-04-11T03:58:45.580Z,1.67
2023-04-11T04:00:21.007Z,1.70
2023-04-11T04:03:43.050Z,1.05
2023-04-11T04:05:19.697Z,1.45
2023-04-11T04:06:56.709Z,1.70
2023-04-11T04:08:37.276Z,1.65
2023-04-11T04:10:11.201Z,1.80
2023-04-11T04:11:46.158Z,2.42
2023-04-11T04:13:19.916Z,2.47
2023-04-11T04:14:58.623Z,2.13
2023-04-11T04:16:32.048Z,1.67
2023-04-11T04:18:09.614Z,1.40
2023-04-11T04:19:54.009Z,2.15
2023-04-11T04:21:32.537Z,1.98
2023-04-11T04:23:05.981Z,1.92
2023-04-11T04:25:03.534Z,2.30
2023-04-11T04:26:39.635Z,2.30
2023-04-11T04:28:27.695Z,1.75
2023-04-11T04:30:04.673Z,2.00
2023-04-11T04:31:57.180Z,2.17
2023-04-11T04:33:44.046Z,1.70
2023-04-11T04:35:28.247Z,1.65
2023-04-11T04:37:03.654Z,1.88
2023-04-11T04:38:48.124Z,1.67
2023-04-11T04:40:22.488Z,2.33
2023-04-11T04:43:42.965Z,1.42
2023-04-11T04:45:23.979Z,2.40
2023-04-11T04:46:58.423Z,2.20
2023-04-11T04:48:34.048Z,2.00
2023-04-11T04:50:10.018Z,1.75
2023-04-11T04:51:43.259Z,1.90
2023-04-11T04:53:16.507Z,1.63
2023-04-11T04:54:57.811Z,1.85
2023-04-11T04:56:32.207Z,1.67
2023-04-11T04:58:05.785Z,2.67
2023-04-11T04:59:38.874Z,1.65
2023-04-11T05:01:19.055Z,2.00
2023-04-11T05:02:55.128Z,1.92
2023-04-11T05:04:31.898Z,1.55
2023-04-11T05:06:09.297Z,2.15
2023-04-11T05:07:43.610Z,2.30
2023-04-11T05:09:18.934Z,1.63
2023-04-11T05:10:53.280Z,2.10
2023-04-11T05:12:27.918Z,2.17
2023-04-11T05:14:06.070Z,1.40
2023-04-11T05:15:40.392Z,2.72
2023-04-11T05:17:13.571Z,2.03
2023-04-11T05:18:47.004Z,1.80
2023-04-11T05:20:21.789Z,1.50
2023-04-11T05:21:56.986Z,1.83
2023-04-11T05:23:30.245Z,2.15
2023-04-11T05:25:09.216Z,2.15
2023-04-11T05:26:44.562Z,1.88
2023-04-11T05:28:18.224Z,2.40
2023-04-11T05:29:51.398Z,2.17
2023-04-11T05:31:25.675Z,2.40
2023-04-11T05:32:59.052Z,1.98
2023-04-11T05:34:34.187Z,2.08
2023-04-11T05:36:08.917Z,2.00
2023-04-11T05:37:44.809Z,2.42
2023-04-11T05:39:18.668Z,2.33
2023-04-11T05:40:51.903Z,2.53
2023-04-11T05:42:26.082Z,2.10
2023-04-11T05:43:59.256Z,2.20
2023-04-11T05:45:32.497Z,1.88
2023-04-11T05:47:06.003Z,2.13
2023-04-11T05:48:39.278Z,2.60
2023-04-11T05:50:12.625Z,2.10
2023-04-11T05:51:45.810Z,1.80
2023-04-11T05:53:21.002Z,1.88
2023-04-11T05:54:54.172Z,1.70
2023-04-11T05:56:27.543Z,2.75
2023-04-11T05:58:00.947Z,2.08
2023-04-11T05:59:34.647Z,2.20
2023-04-11T06:01:12.259Z,2.70
2023-04-11T06:02:45.068Z,1.95
2023-04-11T06:04:18.856Z,2.00
2023-04-11T06:05:52.111Z,2.65
2023-04-11T06:07:27.747Z,2.15
2023-04-11T06:09:02.874Z,2.05
2023-04-11T06:10:36.745Z,2.03
2023-04-11T06:12:14.818Z,1.80
2023-04-11T06:13:48.219Z,1.63
2023-04-11T06:15:21.979Z,1.92
2023-04-11T06:16:55.813Z,1.98
2023-04-11T06:18:29.189Z,1.48
2023-04-11T06:20:04.752Z,1.80
2023-04-11T06:21:39.101Z,1.60
2023-04-11T06:23:12.512Z,1.48
2023-04-11T06:24:47.023Z,1.48
2023-04-11T06:26:20.190Z,1.70
2023-04-11T06:27:53.371Z,1.70
2023-04-11T06:29:26.596Z,1.60
2023-04-11T06:30:59.799Z,2.03
2023-04-11T06:32:33.095Z,2.33
2023-04-11T06:34:06.366Z,1.60
2023-04-11T06:35:39.665Z,1.48
2023-04-11T06:37:13.107Z,2.00
2023-04-11T06:38:46.294Z,1.70
2023-04-11T06:40:21.268Z,2.33
2023-04-11T06:41:54.655Z,2.17
2023-04-11T06:43:32.212Z,1.92
2023-04-11T06:45:06.583Z,1.80
2023-04-11T06:46:39.853Z,1.80
2023-04-11T06:48:13.136Z,1.95
2023-04-11T06:49:46.372Z,2.08
2023-04-11T06:51:19.569Z,1.80
2023-04-11T06:52:52.723Z,1.83
2023-04-11T06:54:26.213Z,1.60
2023-04-11T06:56:01.356Z,1.98
2023-04-11T06:57:34.869Z,1.52
2023-04-11T06:59:07.988Z,1.67
2023-04-11T07:00:41.628Z,2.10
2023-04-11T07:02:15.389Z,1.90
2023-04-11T07:03:50.007Z,1.90
2023-04-11T07:05:23.500Z,1.42
2023-04-11T07:06:56.714Z,1.83
2023-04-11T07:08:29.854Z,1.60
2023-04-11T07:10:03.155Z,1.92
2023-04-11T07:11:38.425Z,2.25
2023-04-11T07:13:12.153Z,1.92
2023-04-11T07:14:45.358Z,1.90
2023-04-11T07:16:18.585Z,1.95
2023-04-11T07:17:52.835Z,2.40
2023-04-11T07:19:26.213Z,2.15
2023-04-11T07:20:59.583Z,1.65
2023-04-11T07:22:32.913Z,1.77
2023-04-11T07:24:07.054Z,2.08
2023-04-11T07:25:40.261Z,1.60
2023-04-11T07:27:15.639Z,1.88
2023-04-11T07:28:48.824Z,2.03
2023-04-11T07:30:22.024Z,1.80
2023-04-11T07:31:55.519Z,1.80
2023-04-11T07:33:28.765Z,1.70
2023-04-11T07:35:02.108Z,1.92
2023-04-11T07:36:35.647Z,1.88
2023-04-11T07:38:10.424Z,1.73
2023-04-11T07:39:44.552Z,2.28
2023-04-11T07:41:17.947Z,1.77
2023-04-11T07:42:52.520Z,2.00
2023-04-11T07:44:27.208Z,1.35
2023-04-11T07:46:00.736Z,1.38
2023-04-11T07:47:34.167Z,1.60
2023-04-11T07:49:07.349Z,1.73
2023-04-11T07:50:40.916Z,1.63
2023-04-11T07:52:14.570Z,1.73
2023-04-11T07:53:47.850Z,1.15
2023-04-11T07:55:21.023Z,1.27
2023-04-11T07:56:54.215Z,1.20
2023-04-11T07:58:30.313Z,1.80
2023-04-11T08:00:04.293Z,1.58
2023-04-11T08:01:45.602Z,1.33
2023-04-11T08:03:19.128Z,1.23
2023-04-11T08:04:52.862Z,1.75
2023-04-11T08:06:26.434Z,1.90
2023-04-11T08:07:59.644Z,1.55
2023-04-11T08:09:32.825Z,1.30
2023-04-11T08:11:06.278Z,1.90
2023-04-11T08:12:39.531Z,1.45
2023-04-11T08:14:14.147Z,1.40
2023-04-11T08:15:47.488Z,1.60
2023-04-11T08:17:27.741Z,1.67
2023-04-11T08:19:01.559Z,1.20
2023-04-11T08:20:34.902Z,1.40
2023-04-11T08:22:08.424Z,1.77
2023-04-11T08:23:42.407Z,1.40
2023-04-11T08:25:19.605Z,1.40
2023-04-11T08:26:52.810Z,2.10
2023-04-11T08:28:26.341Z,1.80
2023-04-11T08:30:01.392Z,1.48
2023-04-11T08:31:34.804Z,1.20
2023-04-11T08:33:09.529Z,1.70
2023-04-11T08:34:42.786Z,1.15
2023-04-11T08:36:16.004Z,1.33
2023-04-11T08:37:49.700Z,1.27
2023-04-11T08:39:23.027Z,1.00
2023-04-11T08:40:56.567Z,1.27
2023-04-11T08:42:31.932Z,1.13
2023-04-11T08:44:05.599Z,1.13
2023-04-11T08:45:40.441Z,0.90
2023-04-11T08:47:17.077Z,1.25
2023-04-11T08:48:50.968Z,1.27
2023-04-11T08:50:24.307Z,1.30
2023-04-11T08:51:57.961Z,1.10
2023-04-11T08:53:35.856Z,1.15
2023-04-11T08:55:10.519Z,1.13
2023-04-11T08:56:44.042Z,1.02
2023-04-11T08:58:17.470Z,1.27
2023-04-11T08:59:51.471Z,1.55
2023-04-11T09:01:32.160Z,1.13
2023-04-11T09:03:08.503Z,0.85
2023-04-11T09:04:42.838Z,1.13
2023-04-11T09:06:16.657Z,1.10
2023-04-11T09:07:50.744Z,1.08
2023-04-11T09:09:31.054Z,1.25
2023-04-11T09:11:04.420Z,1.10
2023-04-11T09:12:37.654Z,0.90
2023-04-11T09:14:12.418Z,1.00
2023-04-11T09:15:45.802Z,1.35
2023-04-11T09:17:20.558Z,1.20
2023-04-11T09:18:53.757Z,0.75
2023-04-11T09:20:30.157Z,1.65
2023-04-11T09:22:06.076Z,0.95
2023-04-11T09:23:39.984Z,1.27
2023-04-11T09:25:13.337Z,1.77
2023-04-11T09:26:46.569Z,1.15
2023-04-11T09:28:19.782Z,0.82
2023-04-11T09:29:52.916Z,1.10
2023-04-11T09:31:42.164Z,0.98
2023-04-11T09:33:28.182Z,0.95
2023-04-11T09:35:16.500Z,0.80
2023-04-11T09:36:56.138Z,0.70
2023-04-11T09:38:33.003Z,0.90
2023-04-11T09:40:07.816Z,0.73
2023-04-11T09:43:14.344Z,0.68
2023-04-11T09:44:47.527Z,0.50
2023-04-11T09:46:21.899Z,0.98
2023-04-11T09:47:57.128Z,0.68
2023-04-11T09:49:34.086Z,0.65
2023-04-11T09:51:08.440Z,1.00
2023-04-11T09:52:43.841Z,0.52
2023-04-11T09:54:18.101Z,0.52
2023-04-11T09:55:51.366Z,0.70
2023-04-11T09:57:27.000Z,0.93
2023-04-11T09:59:03.593Z,0.88
2023-04-11T10:00:37.685Z,0.70
2023-04-11T10:02:11.242Z,0.90
2023-04-11T10:03:47.463Z,0.80
2023-04-11T10:05:26.931Z,1.02
2023-04-11T10:07:14.255Z,0.65
2023-04-11T10:08:47.936Z,1.25
2023-04-11T10:10:26.291Z,1.00
2023-04-11T10:11:59.944Z,0.70
2023-04-11T10:13:41.215Z,0.90
2023-04-11T10:15:15.654Z,1.05
2023-04-11T10:17:21.292Z,0.88
2023-04-11T10:19:24.125Z,0.70
2023-04-11T10:20:59.484Z,0.77
2023-04-11T10:23:01.446Z,0.90
2023-04-11T10:24:34.825Z,0.82
2023-04-11T10:26:10.623Z,0.80
2023-04-11T10:27:48.261Z,0.60
2023-04-11T10:29:51.577Z,0.55
2023-04-11T10:31:26.457Z,0.75
2023-04-11T10:33:17.207Z,1.20
2023-04-11T10:35:26.043Z,0.82
2023-04-11T10:37:06.021Z,1.35
2023-04-11T10:38:49.848Z,0.63
2023-04-11T10:40:25.083Z,0.80
2023-04-11T10:42:27.629Z,0.60
2023-04-11T10:44:21.213Z,0.80
2023-04-11T10:46:18.750Z,0.60
2023-04-11T10:48:10.292Z,0.65
2023-04-11T10:49:47.243Z,0.80
2023-04-11T10:51:27.813Z,0.63
2023-04-11T10:54:37.844Z,0.82
2023-04-11T10:56:11.059Z,1.00
2023-04-11T10:58:06.862Z,0.85
2023-04-11T11:00:10.620Z,0.90
2023-04-11T11:01:55.952Z,0.95
2023-04-11T11:03:34.198Z,1.02
2023-04-11T11:05:22.083Z,0.70
2023-04-11T11:06:57.354Z,0.80
2023-04-11T11:08:34.908Z,0.80
2023-04-11T11:10:10.019Z,1.00
2023-04-11T11:11:43.178Z,1.15
2023-04-11T11:13:17.910Z,0.90
2023-04-11T11:14:51.086Z,0.68
2023-04-11T11:16:26.755Z,1.00
2023-04-11T11:18:00.337Z,0.80
2023-04-11T11:19:33.950Z,0.70
2023-04-11T11:21:11.263Z,1.17
2023-04-11T11:23:02.950Z,1.10
2023-04-11T11:24:37.419Z,1.17
2023-04-11T11:26:10.640Z,0.80
2023-04-11T11:27:43.776Z,1.08
2023-04-11T11:29:17.620Z,1.02
2023-04-11T11:30:54.860Z,1.45
2023-04-11T11:32:29.248Z,1.02
2023-04-11T11:34:18.282Z,1.20
2023-04-11T11:35:59.334Z,0.90
2023-04-11T11:37:32.596Z,1.10
2023-04-11T11:39:06.991Z,1.02
2023-04-11T11:40:42.103Z,1.15
2023-04-11T11:42:15.643Z,1.10
2023-04-11T11:43:48.780Z,1.13
2023-04-11T11:47:03.739Z,1.20
2023-04-11T11:48:37.246Z,1.30
2023-04-11T11:50:11.959Z,1.23
2023-04-11T11:51:47.887Z,1.40
2023-04-11T11:53:22.313Z,0.90
2023-04-11T11:54:55.474Z,1.25
2023-04-11T11:56:30.153Z,0.90
2023-04-11T11:58:03.869Z,1.30
2023-04-11T11:59:37.618Z,0.95
2023-04-11T12:01:16.767Z,0.98
2023-04-11T12:02:53.341Z,1.67
2023-04-11T12:04:27.317Z,1.00
2023-04-11T12:06:01.020Z,1.00
2023-04-11T12:07:37.287Z,1.33
2023-04-11T12:09:13.110Z,1.38
2023-04-11T12:10:48.337Z,1.20
2023-04-11T12:12:22.919Z,1.23
2023-04-11T12:13:56.686Z,1.60
2023-04-11T12:15:30.103Z,0.80
2023-04-11T12:17:03.401Z,1.23
2023-04-11T12:18:41.491Z,1.25
2023-04-11T12:20:15.858Z,1.00
2023-04-11T12:21:49.104Z,1.00
2023-04-11T12:23:22.763Z,1.10
2023-04-11T12:25:07.053Z,1.27
2023-04-11T12:26:52.882Z,1.33
2023-04-11T12:28:35.721Z,0.93
2023-04-11T12:31:44.506Z,0.90
2023-04-11T12:33:19.021Z,0.85
2023-04-11T12:34:52.409Z,1.13
2023-04-11T12:36:25.931Z,1.30
2023-04-11T12:37:59.367Z,0.68
2023-04-11T12:39:33.159Z,1.25
2023-04-11T12:41:30.120Z,1.30
2023-04-11T12:42:59.896Z,1.15
2023-04-11T12:44:34.612Z,1.00
2023-04-11T12:47:41.392Z,0.80
2023-04-11T12:49:14.610Z,0.90
2023-04-11T12:50:47.745Z,1.25
2023-04-11T12:52:21.402Z,1.10
2023-04-11T12:53:56.916Z,0.57
2023-04-11T12:55:30.193Z,1.10
2023-04-11T12:57:04.177Z,1.25
2023-04-11T12:58:37.312Z,0.93
2023-04-11T13:00:14.047Z,1.25
2023-04-11T13:01:47.494Z,1.00
2023-04-11T13:03:21.328Z,1.08
2023-04-11T13:04:55.270Z,1.20
2023-04-11T13:06:29.447Z,1.00
2023-04-11T13:08:02.916Z,0.90
2023-04-11T13:09:36.653Z,0.60
2023-04-11T13:11:09.791Z,0.82
2023-04-11T13:12:44.486Z,1.02
2023-04-11T13:14:18.041Z,1.30
2023-04-11T13:15:52.623Z,1.10
2023-04-11T13:17:25.968Z,1.00
2023-04-11T13:18:59.156Z,1.05
2023-04-11T13:20:32.824Z,1.20
2023-04-11T13:22:06.410Z,0.90
2023-04-11T13:23:39.649Z,1.00
2023-04-11T13:25:13.171Z,0.90
2023-04-11T13:26:46.482Z,1.42
2023-04-11T13:28:21.697Z,1.20
2023-04-11T13:29:54.920Z,1.23
2023-04-11T13:31:29.702Z,1.30
2023-04-11T13:33:03.775Z,1.13
2023-04-11T13:34:36.982Z,0.98
2023-04-11T13:36:11.925Z,1.50
2023-04-11T13:37:45.334Z,1.13
2023-04-11T13:39:18.629Z,1.30
2023-04-11T13:40:51.792Z,1.23
2023-04-11T13:42:25.297Z,1.10
2023-04-11T13:43:58.674Z,1.10
2023-04-11T13:45:32.348Z,1.02
2023-04-11T13:47:07.072Z,0.90
2023-04-11T13:48:40.256Z,1.00
2023-04-11T13:50:13.536Z,1.05
2023-04-11T13:51:47.128Z,1.00
2023-04-11T13:53:20.229Z,1.00
2023-04-11T13:54:53.375Z,0.98
2023-04-11T13:56:27.018Z,1.10
2023-04-11T13:58:00.283Z,1.10
2023-04-11T13:59:33.448Z,1.13
2023-04-11T14:01:08.085Z,1.10
2023-04-11T14:02:44.374Z,0.82
2023-04-11T14:04:18.118Z,1.63
2023-04-11T14:05:51.588Z,1.02
2023-04-11T14:07:25.141Z,1.10
2023-04-11T14:08:58.826Z,0.93
2023-04-11T14:10:32.046Z,0.88
2023-04-11T14:12:05.483Z,1.10
2023-04-11T14:13:38.709Z,0.80
2023-04-11T14:15:12.860Z,1.00
2023-04-11T14:16:46.088Z,1.13
2023-04-11T14:18:20.776Z,1.30
2023-04-11T14:19:53.965Z,0.80
2023-04-11T14:21:28.861Z,0.82
2023-04-11T14:23:02.280Z,0.70
2023-04-11T14:24:36.178Z,0.80
2023-04-11T14:26:09.564Z,0.85
2023-04-11T14:27:43.220Z,0.98
2023-04-11T14:29:16.413Z,1.05
2023-04-11T14:30:49.957Z,1.00
2023-04-11T14:32:23.198Z,0.68
2023-04-11T14:33:57.867Z,1.23
2023-04-11T14:35:31.541Z,0.75
2023-04-11T14:37:04.702Z,0.80
2023-04-11T14:38:37.881Z,0.80
2023-04-11T14:40:12.255Z,0.90
2023-04-11T14:41:45.561Z,0.82
2023-04-11T14:43:18.793Z,1.00
2023-04-11T14:44:53.476Z,0.98
2023-04-11T14:46:26.817Z,1.02
2023-04-11T14:48:00.409Z,0.88
2023-04-11T14:49:35.312Z,1.27
2023-04-11T14:51:09.165Z,1.30
2023-04-11T14:52:42.297Z,0.90
2023-04-11T14:54:15.709Z,1.27
2023-04-11T14:55:49.098Z,1.33
2023-04-11T14:57:23.978Z,1.20
2023-04-11T14:58:57.210Z,0.75
2023-04-11T15:00:30.658Z,1.05
2023-04-11T15:02:04.930Z,0.90
2023-04-11T15:03:38.361Z,0.80
2023-04-11T15:05:16.877Z,0.80
2023-04-11T15:06:50.148Z,1.10
2023-04-11T15:08:23.648Z,0.80
2023-04-11T15:09:56.825Z,0.50
2023-04-11T15:11:30.067Z,0.50
2023-04-11T15:13:03.719Z,0.77
2023-04-11T15:14:36.836Z,0.95
2023-04-11T15:16:10.201Z,0.60
2023-04-11T15:17:47.440Z,0.70
2023-04-11T15:19:22.843Z,0.70
2023-04-11T15:20:59.899Z,0.50
2023-04-11T15:22:35.168Z,0.60
2023-04-11T15:24:08.629Z,0.70
2023-04-11T15:25:42.342Z,1.02
2023-04-11T15:27:15.586Z,0.60
2023-04-11T15:28:48.836Z,1.00
2023-04-11T15:30:21.996Z,0.80
2023-04-11T15:31:55.308Z,0.77
2023-04-11T15:33:28.673Z,0.77
2023-04-11T15:35:02.185Z,0.70
2023-04-11T15:36:38.242Z,0.93
2023-04-11T15:38:13.215Z,0.77
2023-04-11T15:39:47.015Z,0.55
2023-04-11T15:41:20.692Z,1.38
2023-04-11T15:42:54.537Z,0.73
2023-04-11T15:44:27.709Z,0.75
2023-04-11T15:46:03.247Z,1.00
2023-04-11T15:47:36.443Z,0.80
2023-04-11T15:49:09.608Z,0.98
2023-04-11T15:50:44.738Z,0.98
2023-04-11T15:52:21.781Z,0.77
2023-04-11T15:53:55.590Z,0.70
2023-04-11T15:55:29.495Z,0.80
2023-04-11T15:57:03.561Z,0.80
2023-04-11T15:58:36.675Z,0.90
2023-04-11T16:00:11.453Z,0.88
2023-04-11T16:03:18.195Z,0.65
2023-04-11T16:04:53.999Z,0.65
2023-04-11T16:06:27.512Z,0.90
2023-04-11T16:08:02.106Z,0.77
2023-04-11T16:09:35.607Z,1.40
2023-04-11T16:11:08.987Z,0.93
2023-04-11T16:12:42.557Z,1.27
2023-04-11T16:14:15.710Z,1.48
2023-04-11T16:15:48.898Z,1.05
2023-04-11T16:17:22.114Z,0.82
2023-04-11T16:18:55.301Z,0.80
2023-04-11T16:20:29.084Z,0.50
2023-04-11T16:22:02.746Z,0.65
2023-04-11T16:23:37.350Z,0.70
2023-04-11T16:25:11.230Z,0.90
2023-04-11T16:26:45.168Z,0.80
2023-04-11T16:28:18.366Z,0.50
2023-04-11T16:29:53.844Z,1.08
2023-04-11T16:31:27.114Z,0.60
2023-04-11T16:33:00.384Z,0.52
2023-04-11T16:34:33.876Z,0.90
2023-04-11T16:36:07.874Z,0.90
2023-04-11T16:37:41.086Z,0.80
2023-04-11T16:39:15.797Z,0.80
2023-04-11T16:42:22.293Z,0.57
2023-04-11T16:43:55.738Z,0.55
2023-04-11T16:45:29.315Z,0.55
2023-04-11T16:47:03.412Z,0.60
2023-04-11T16:48:36.629Z,0.90
2023-04-11T16:50:10.642Z,0.68
2023-04-11T16:51:44.050Z,0.80
2023-04-11T16:53:18.663Z,0.68
2023-04-11T16:54:53.331Z,0.60
2023-04-11T16:56:28.905Z,0.68
2023-04-11T16:58:02.319Z,0.68
2023-04-11T16:59:35.615Z,0.60
2023-04-11T17:01:10.011Z,0.70
2023-04-11T17:02:43.625Z,0.90
2023-04-11T17:04:16.991Z,0.88
2023-04-11T17:05:50.384Z,0.80
2023-04-11T17:07:23.519Z,0.70
2023-04-11T17:08:57.790Z,0.60
2023-04-11T17:10:32.513Z,0.50
2023-04-11T17:13:40.028Z,0.60
2023-04-11T17:15:13.516Z,0.80
2023-04-11T17:16:46.724Z,0.82
2023-04-11T17:18:19.944Z,0.82
2023-04-11T17:19:53.163Z,0.60
2023-04-11T17:21:27.350Z,0.50
2023-04-11T17:23:00.605Z,0.80
2023-04-11T17:24:33.797Z,0.63
2023-04-11T17:26:08.473Z,0.60
2023-04-11T17:27:42.423Z,0.80
2023-04-11T17:29:16.033Z,1.00
2023-04-11T17:30:50.016Z,0.75
2023-04-11T17:32:25.995Z,0.90
2023-04-11T17:33:59.970Z,1.00
2023-04-11T17:35:33.363Z,1.00
2023-04-11T17:37:07.177Z,0.77
2023-04-11T17:38:42.010Z,0.75
2023-04-11T17:40:15.516Z,0.60
2023-04-11T17:41:50.202Z,0.60
2023-04-11T17:45:09.941Z,0.68
2023-04-11T17:46:47.597Z,0.95
2023-04-11T17:48:22.901Z,0.80
2023-04-11T17:49:56.772Z,1.00
2023-04-11T17:51:30.059Z,0.82
2023-04-11T17:53:04.692Z,0.75
2023-04-11T17:54:38.659Z,0.70
2023-04-11T17:56:12.527Z,0.82
2023-04-11T17:57:48.880Z,0.98
2023-04-11T17:59:22.519Z,0.73
2023-04-11T18:00:57.060Z,0.80
2023-04-11T18:04:07.578Z,0.70
2023-04-11T18:05:41.784Z,0.77
2023-04-11T18:07:15.097Z,0.80
2023-04-11T18:08:52.119Z,0.80
2023-04-11T18:10:28.198Z,0.77
2023-04-11T18:12:01.605Z,0.60
2023-04-11T18:13:36.599Z,0.98
2023-04-11T18:15:11.800Z,0.93
2023-04-11T18:16:47.388Z,0.85
2023-04-11T18:18:20.701Z,1.00
2023-04-11T18:19:54.061Z,0.60
2023-04-11T18:21:28.111Z,0.98
2023-04-11T18:23:01.698Z,0.70
2023-04-11T18:24:34.977Z,1.05
2023-04-11T18:26:08.508Z,0.73
2023-04-11T18:27:42.287Z,0.65
2023-04-11T18:29:17.095Z,0.50
2023-04-11T18:32:26.316Z,0.57
2023-04-11T18:34:03.382Z,0.88
2023-04-11T18:35:37.386Z,0.70
2023-04-11T18:37:10.779Z,0.80
2023-04-11T18:38:44.481Z,0.85
2023-04-11T18:40:18.739Z,0.60
2023-04-11T18:41:52.584Z,0.57
2023-04-11T18:43:26.098Z,0.50
2023-04-11T18:45:00.692Z,0.82
2023-04-11T18:46:35.051Z,0.60
2023-04-11T18:48:09.313Z,0.77
2023-04-11T18:49:43.281Z,0.65
2023-04-11T18:51:16.562Z,0.60
2023-04-11T18:52:53.909Z,0.50
2023-04-11T18:54:29.780Z,0.70
2023-04-11T18:56:03.472Z,1.23
2023-04-11T18:57:38.425Z,0.45
2023-04-11T18:59:14.956Z,0.50
2023-04-11T19:00:52.433Z,1.02
2023-04-11T19:02:26.766Z,0.43
2023-04-11T19:04:00.372Z,0.70
2023-04-11T19:05:34.902Z,0.40
2023-04-11T19:07:08.389Z,1.60
2023-04-11T19:08:41.829Z,1.23
2023-04-11T19:10:15.328Z,0.90
2023-04-11T19:11:48.605Z,1.10
2023-04-11T19:13:21.876Z,1.05
2023-04-11T19:14:55.774Z,0.70
2023-04-11T19:16:31.464Z,0.63
2023-04-11T19:18:06.409Z,1.20
2023-04-11T19:21:13.020Z,0.90
2023-04-11T19:22:46.722Z,0.90
2023-04-11T19:24:20.008Z,0.88
2023-04-11T19:25:53.393Z,0.80
2023-04-11T19:27:26.848Z,0.82
2023-04-11T19:29:00.942Z,0.77
2023-04-11T19:30:35.453Z,0.82
2023-04-11T19:32:10.202Z,0.95
2023-04-11T19:33:43.564Z,0.90
2023-04-11T19:35:21.149Z,0.73
2023-04-11T19:36:54.534Z,0.90
2023-04-11T19:38:27.913Z,0.73
2023-04-11T19:40:01.736Z,1.00
2023-04-11T19:41:35.074Z,0.63
2023-04-11T19:43:09.512Z,0.63
2023-04-11T19:44:42.812Z,1.10
2023-04-11T19:46:17.287Z,0.88
2023-04-11T19:47:52.786Z,1.13
2023-04-11T19:49:26.214Z,0.73
2023-04-11T19:51:01.059Z,0.95
2023-04-11T19:52:36.026Z,0.52
2023-04-11T19:54:09.277Z,0.95
2023-04-11T19:55:45.182Z,0.75
2023-04-11T19:57:18.532Z,0.80
2023-04-11T19:58:51.899Z,0.80
2023-04-11T20:00:26.567Z,0.70
2023-04-11T20:02:01.573Z,0.68
2023-04-11T20:03:36.548Z,1.38
2023-04-11T20:06:44.103Z,0.77
2023-04-11T20:08:18.766Z,0.88
2023-04-11T20:09:52.445Z,1.38
2023-04-11T20:11:27.968Z,1.02
2023-04-11T20:13:02.660Z,0.95
2023-04-11T20:14:37.203Z,0.90
2023-04-11T20:16:11.300Z,0.90
2023-04-11T20:17:46.293Z,0.60
2023-04-11T20:21:01.405Z,0.60
2023-04-11T20:22:34.668Z,0.65
2023-04-11T20:24:10.446Z,1.10
2023-04-11T20:25:44.254Z,0.80
2023-04-11T20:27:17.928Z,1.10
2023-04-11T20:28:52.941Z,0.68
2023-04-11T20:30:26.854Z,1.00
2023-04-11T20:32:00.274Z,0.75
2023-04-11T20:33:33.606Z,0.98
2023-04-11T20:35:09.720Z,1.25
2023-04-11T20:36:43.328Z,1.20
2023-04-11T20:38:17.322Z,0.93
2023-04-11T20:39:51.692Z,1.60
2023-04-11T20:41:26.464Z,2.00
2023-04-11T20:43:01.942Z,2.60
2023-04-11T20:44:35.979Z,4.13
2023-04-11T20:46:09.766Z,2.38
2023-04-11T20:47:46.327Z,1.70
2023-04-11T20:49:20.032Z,2.55
2023-04-11T20:50:55.744Z,2.58
2023-04-11T20:52:29.642Z,1.20
2023-04-11T20:54:03.129Z,1.20
2023-04-11T20:55:36.647Z,1.10
2023-04-11T20:57:08.775Z,1.48
2023-04-11T20:58:42.015Z,0.93
2023-04-11T21:00:16.539Z,1.00
2023-04-11T21:01:50.183Z,1.10
2023-04-11T21:03:24.021Z,1.17
2023-04-11T21:04:57.233Z,1.10
2023-04-11T21:06:32.792Z,1.05
2023-04-11T21:08:07.068Z,1.02
2023-04-11T21:09:40.189Z,1.08
2023-04-11T21:11:13.360Z,1.10
2023-04-11T21:12:51.069Z,0.88
2023-04-11T21:14:24.542Z,0.90
2023-04-11T21:15:58.345Z,0.90
2023-04-11T21:17:34.706Z,1.00
2023-04-11T21:19:07.893Z,0.93
2023-04-11T21:20:41.429Z,1.10
2023-04-11T21:22:15.920Z,1.05
2023-04-11T21:23:49.128Z,0.63
2023-04-11T21:25:23.211Z,0.75
2023-04-11T21:26:56.610Z,0.93
2023-04-11T21:28:31.057Z,1.10
2023-04-11T21:30:04.550Z,0.80
2023-04-11T21:31:37.941Z,0.98
2023-04-11T21:33:11.556Z,0.90